Time;durP1;ratioP1;P1;durP2;ratioP2;P2;SDS_P1;SDS_P2;PMS_P1;PMS_P2;Temp;Humidity;BMP_temperature;BMP_pressure;BME280_temperature;BME280_humidity;BME280_pressure;Samples;Min_cycle;Max_cycle;Signal;HPM_P1;HPM_P2
2023/09/29 00:01:38;;;;;;;1.10;0.40;;;;;;;;;;6215889;23;20428;-81
2023/09/29 00:04:05;;;;;;;1.20;0.38;;;;;;;;;;6242144;23;20008;-81
2023/09/29 00:06:34;;;;;;;1.58;0.43;;;;;;;;;;6215904;23;20021;-81
2023/09/29 00:09:07;;;;;;;0.55;0.15;;;;;;;;;;6215715;23;20023;-81
2023/09/29 00:11:33;;;;;;;0.77;0.30;;;;;;;;;;6242329;23;20004;-80
2023/09/29 00:13:59;;;;;;;1.27;0.70;;;;;;;;;;6242871;23;20058;-81
2023/09/29 00:16:25;;;;;;;1.67;0.65;;;;;;;;;;6215836;23;20011;-81
2023/09/29 00:18:52;;;;;;;1.90;0.68;;;;;;;;;;6243372;23;20728;-81
2023/09/29 00:21:18;;;;;;;0.80;0.28;;;;;;;;;;6242433;23;20008;-81
2023/09/29 00:23:44;;;;;;;2.25;0.57;;;;;;;;;;6242987;23;20612;-81
2023/09/29 00:26:10;;;;;;;5.13;0.75;;;;;;;;;;6242163;23;20008;-81
2023/09/29 00:28:36;;;;;;;1.67;0.55;;;;;;;;;;6215823;23;20070;-81
2023/09/29 00:31:04;;;;;;;3.53;0.88;;;;;;;;;;6215492;23;20008;-81
2023/09/29 00:33:30;;;;;;;1.65;0.63;;;;;;;;;;6215692;23;20568;-81
2023/09/29 00:35:59;;;;;;;4.38;0.55;;;;;;;;;;6215404;23;20054;-81
2023/09/29 00:38:26;;;;;;;1.60;0.85;;;;;;;;;;6216126;23;20030;-80
2023/09/29 00:40:52;;;;;;;1.45;0.50;;;;;;;;;;6214977;23;20023;-81
2023/09/29 00:43:18;;;;;;;0.30;0.20;;;;;;;;;;6215798;23;20179;-80
2023/09/29 00:45:44;;;;;;;0.80;0.30;;;;;;;;;;6215228;23;20488;-81
2023/09/29 00:48:10;;;;;;;0.85;0.52;;;;;;;;;;6215387;23;20082;-80
2023/09/29 00:50:39;;;;;;;2.03;0.98;;;;;;;;;;6215155;23;20020;-81
2023/09/29 00:53:11;;;;;;;0.35;0.22;;;;;;;;;;6242775;23;20004;-80
2023/09/29 00:55:37;;;;;;;1.40;0.82;;;;;;;;;;6242334;23;20416;-81
2023/09/29 00:58:06;;;;;;;0.85;0.22;;;;;;;;;;6242331;23;20012;-81
2023/09/29 01:30:45;;;;;;;1.75;0.28;;;;;;;;;;6242084;23;20467;-81
2023/09/29 01:33:21;;;;;;;0.90;0.35;;;;;;;;;;6214277;23;20553;-81
2023/09/29 01:35:50;;;;;;;2.03;0.70;;;;;;;;;;6242188;23;20012;-81
2023/09/29 01:38:40;;;;;;;0.82;0.40;;;;;;;;;;6214335;23;20040;-81
2023/09/29 01:41:13;;;;;;;1.23;0.43;;;;;;;;;;6215201;23;20090;-81
2023/09/29 01:43:50;;;;;;;;;;;;;;;;;;;;;
2023/09/29 01:46:16;;;;;;;1.80;0.63;;;;;;;;;;6241763;23;20095;-81
2023/09/29 01:48:42;;;;;;;3.00;0.73;;;;;;;;;;6214234;23;20012;-81
2023/09/29 01:51:28;;;;;;;0.20;0.20;;;;;;;;;;6215213;23;20051;-81
2023/09/29 01:54:05;;;;;;;4.80;0.50;;;;;;;;;;6214325;23;20008;-81
2023/09/29 01:56:49;;;;;;;5.75;0.20;;;;;;;;;;6215059;23;20100;-81
2023/09/29 01:59:15;;;;;;;4.13;0.30;;;;;;;;;;6214778;23;20012;-80
2023/09/29 02:01:41;;;;;;;2.72;0.65;;;;;;;;;;6215052;23;20019;-81
2023/09/29 02:04:24;;;;;;;1.48;0.45;;;;;;;;;;6240866;23;20019;-81
2023/09/29 02:06:50;;;;;;;1.70;0.70;;;;;;;;;;6242344;23;20088;-81
2023/09/29 02:09:16;;;;;;;0.63;0.20;;;;;;;;;;6214432;23;20008;-81
2023/09/29 02:11:45;;;;;;;1.27;0.38;;;;;;;;;;6241656;23;20015;-80
2023/09/29 02:14:21;;;;;;;0.30;0.20;;;;;;;;;;6214824;23;20015;-81
2023/09/29 02:16:50;;;;;;;1.77;0.43;;;;;;;;;;6213295;23;20016;-80
2023/09/29 02:19:16;;;;;;;9.05;0.88;;;;;;;;;;6241903;23;20054;-81
2023/09/29 02:21:46;;;;;;;2.80;0.98;;;;;;;;;;6242164;23;20028;-81
2023/09/29 02:24:12;;;;;;;7.15;1.00;;;;;;;;;;6242257;23;20008;-81
2023/09/29 02:26:41;;;;;;;0.88;0.65;;;;;;;;;;6241797;23;20012;-81
2023/09/29 02:29:08;;;;;;;5.70;0.77;;;;;;;;;;6240990;23;20024;-81
2023/09/29 02:31:36;;;;;;;2.58;0.55;;;;;;;;;;6241684;23;20091;-81
2023/09/29 02:34:02;;;;;;;2.25;0.50;;;;;;;;;;6241734;23;20034;-81
2023/09/29 02:36:28;;;;;;;0.38;0.30;;;;;;;;;;6214993;23;20320;-81
2023/09/29 02:39:03;;;;;;;0.55;0.20;;;;;;;;;;6214966;23;20035;-81
2023/09/29 02:41:38;;;;;;;0.95;0.47;;;;;;;;;;6241958;23;20574;-81
2023/09/29 02:44:12;;;;;;;0.40;0.20;;;;;;;;;;6241503;23;20609;-81
2023/09/29 02:46:38;;;;;;;0.75;0.32;;;;;;;;;;6214660;23;20335;-81
2023/09/29 02:49:12;;;;;;;0.45;0.20;;;;;;;;;;6241604;23;20424;-81
2023/09/29 02:51:41;;;;;;;1.08;0.30;;;;;;;;;;6241844;23;20011;-81
2023/09/29 02:54:10;;;;;;;3.03;1.00;;;;;;;;;;6213905;23;20303;-81
2023/09/29 02:56:36;;;;;;;2.15;0.47;;;;;;;;;;6214759;23;20043;-81
2023/09/29 02:59:07;;;;;;;0.30;0.30;;;;;;;;;;6214097;23;20012;-80
2023/09/29 03:01:44;;;;;;;0.47;0.30;;;;;;;;;;6216693;23;20436;-81
2023/09/29 03:04:16;;;;;;;0.70;0.32;;;;;;;;;;6242779;23;20004;-81
2023/09/29 03:06:42;;;;;;;;;;;;;;;;;;6244295;23;20761;-81
2023/09/29 03:09:13;;;;;;;0.73;0.30;;;;;;;;;;6215856;23;19911;-81
2023/09/29 03:11:40;;;;;;;2.87;0.90;;;;;;;;;;6244072;23;20078;-81
2023/09/29 03:14:06;;;;;;;1.95;0.40;;;;;;;;;;6243350;23;20432;-81
2023/09/29 03:16:35;;;;;;;6.55;0.30;;;;;;;;;;6244610;23;20012;-81
2023/09/29 03:19:01;;;;;;;1.08;0.43;;;;;;;;;;6216787;23;20036;-81
2023/09/29 03:21:27;;;;;;;0.25;0.10;;;;;;;;;;6243838;23;20016;-81
2023/09/29 03:23:54;;;;;;;1.13;0.57;;;;;;;;;;6215990;23;20012;-81
2023/09/29 03:26:22;;;;;;;1.45;0.40;;;;;;;;;;6216642;23;20097;-81
2023/09/29 03:28:53;;;;;;;3.22;0.35;;;;;;;;;;6214699;23;20023;-81
2023/09/29 03:31:26;;;;;;;0.60;0.38;;;;;;;;;;6216653;23;20023;-81
2023/09/29 03:33:52;;;;;;;8.48;0.82;;;;;;;;;;6215989;23;20007;-81
2023/09/29 03:36:21;;;;;;;2.20;0.30;;;;;;;;;;6216304;23;20091;-81
2023/09/29 03:38:47;;;;;;;4.78;0.60;;;;;;;;;;6216785;23;20019;-81
2023/09/29 03:41:14;;;;;;;1.35;0.55;;;;;;;;;;6217110;23;20038;-81
2023/09/29 03:43:40;;;;;;;1.52;0.52;;;;;;;;;;6243701;23;20004;-81
2023/09/29 03:46:10;;;;;;;3.92;0.73;;;;;;;;;;6243481;23;20012;-81
2023/09/29 03:48:38;;;;;;;1.48;0.57;;;;;;;;;;6243795;23;20011;-81
2023/09/29 03:51:04;;;;;;;1.55;0.65;;;;;;;;;;6215602;23;20083;-81
2023/09/29 03:53:38;;;;;;;0.28;0.20;;;;;;;;;;6216339;23;20075;-81
2023/09/29 03:56:07;;;;;;;2.25;0.70;;;;;;;;;;6215500;23;20773;-81
2023/09/29 04:04:38;;;;;;;1.02;0.40;;;;;;;;;;6243201;23;20055;-80
2023/09/29 04:07:07;;;;;;;0.75;0.10;;;;;;;;;;6216465;23;20027;-80
2023/09/29 04:09:59;;;;;;;5.15;0.40;;;;;;;;;;6216377;23;20031;-80
2023/09/29 04:12:33;;;;;;;0.85;0.20;;;;;;;;;;6216306;23;20012;-81
2023/09/29 04:14:59;;;;;;;1.95;0.77;;;;;;;;;;6215204;23;20023;-81
2023/09/29 04:17:28;;;;;;;1.10;0.63;;;;;;;;;;6215867;23;20020;-81
2023/09/29 04:20:05;;;;;;;;;;;;;;;;;;;;;
2023/09/29 04:22:52;;;;;;;0.20;0.20;;;;;;;;;;6241958;23;20016;-81
2023/09/29 04:25:18;;;;;;;3.00;0.85;;;;;;;;;;6215908;23;20088;-80
2023/09/29 04:27:47;;;;;;;1.58;0.73;;;;;;;;;;6214414;23;20016;-81
2023/09/29 04:30:15;;;;;;;0.70;0.30;;;;;;;;;;6215431;23;20024;-80
2023/09/29 04:32:41;;;;;;;0.77;0.50;;;;;;;;;;6242671;23;20008;-81
2023/09/29 04:35:13;;;;;;;1.55;0.38;;;;;;;;;;6215774;23;20004;-80
2023/09/29 04:37:40;;;;;;;1.35;0.30;;;;;;;;;;6215373;23;20039;-80
2023/09/29 04:40:11;;;;;;;0.25;0.17;;;;;;;;;;6215734;23;20015;-81
2023/09/29 04:42:42;;;;;;;1.17;0.60;;;;;;;;;;6215398;23;20043;-81
2023/09/29 04:45:20;;;;;;;;;;;;;;;;;;;;;
2023/09/29 04:48:22;;;;;;;0.35;0.10;;;;;;;;;;6090486;23;20036;-81
2023/09/29 04:59:21;;;;;;;1.13;0.40;;;;;;;;;;6207046;23;20020;-81
2023/09/29 05:01:54;;;;;;;2.90;0.60;;;;;;;;;;6184971;23;20040;-81
2023/09/29 05:04:20;;;;;;;0.10;0.10;;;;;;;;;;6185303;23;20478;-81
2023/09/29 05:06:46;;;;;;;0.73;0.40;;;;;;;;;;6185682;23;20091;-81
2023/09/29 05:09:12;;;;;;;0.68;0.40;;;;;;;;;;6213729;23;20039;-80
2023/09/29 05:11:38;;;;;;;1.30;0.50;;;;;;;;;;6213026;23;20108;-81
2023/09/29 05:14:04;;;;;;;1.45;0.38;;;;;;;;;;6213569;23;20008;-81
2023/09/29 05:16:30;;;;;;;1.55;0.60;;;;;;;;;;6185332;23;20020;-80
2023/09/29 05:19:00;;;;;;;0.65;0.28;;;;;;;;;;6184856;23;20012;-85
2023/09/29 05:21:27;;;;;;;0.40;0.30;;;;;;;;;;6212779;23;20749;-82
2023/09/29 05:23:53;;;;;;;4.68;0.82;;;;;;;;;;6213731;23;20089;-81
2023/09/29 05:26:19;;;;;;;0.95;0.32;;;;;;;;;;6186019;23;20015;-81
2023/09/29 05:28:45;;;;;;;1.65;0.73;;;;;;;;;;6186490;23;20008;-81
2023/09/29 05:31:11;;;;;;;0.20;0.20;;;;;;;;;;6189053;23;20062;-83
2023/09/29 05:33:37;;;;;;;0.30;0.20;;;;;;;;;;6190125;23;20023;-84
2023/09/29 05:36:11;;;;;;;0.20;0.17;;;;;;;;;;6190081;23;20091;-85
2023/09/29 05:38:37;;;;;;;0.93;0.40;;;;;;;;;;6188626;23;20012;-81
2023/09/29 05:41:03;;;;;;;0.55;0.32;;;;;;;;;;6185445;23;20063;-81
2023/09/29 05:43:29;;;;;;;1.35;0.38;;;;;;;;;;6185421;23;20018;-80
2023/09/29 05:45:55;;;;;;;0.75;0.60;;;;;;;;;;6185446;23;20011;-81
2023/09/29 05:48:21;;;;;;;0.77;0.47;;;;;;;;;;6212112;23;20763;-81
2023/09/29 05:50:47;;;;;;;0.55;0.17;;;;;;;;;;6211774;23;20040;-81
2023/09/29 05:53:13;;;;;;;2.08;0.93;;;;;;;;;;6185547;23;20005;-81
2023/09/29 05:55:39;;;;;;;1.45;0.52;;;;;;;;;;6211879;23;20012;-81
2023/09/29 05:58:05;;;;;;;1.33;0.57;;;;;;;;;;6211516;23;20020;-81
2023/09/29 06:00:33;;;;;;;0.73;0.28;;;;;;;;;;6184478;23;20475;-81
2023/09/29 06:03:02;;;;;;;1.00;0.75;;;;;;;;;;6185596;23;20051;-81
2023/09/29 06:05:28;;;;;;;2.15;0.38;;;;;;;;;;6185965;23;20044;-81
2023/09/29 06:07:54;;;;;;;2.72;0.98;;;;;;;;;;6186009;23;20075;-81
2023/09/29 06:10:20;;;;;;;1.15;0.50;;;;;;;;;;6212574;23;20012;-81
2023/09/29 06:12:46;;;;;;;1.60;0.82;;;;;;;;;;6186039;23;20059;-81
2023/09/29 06:15:12;;;;;;;2.53;0.85;;;;;;;;;;6185617;23;20395;-81
2023/09/29 06:17:39;;;;;;;2.50;1.30;;;;;;;;;;6186550;23;20009;-81
2023/09/29 06:20:05;;;;;;;3.88;1.50;;;;;;;;;;6186776;23;20693;-81
2023/09/29 06:22:31;;;;;;;1.02;0.60;;;;;;;;;;6186243;23;20013;-81
2023/09/29 06:24:57;;;;;;;2.88;1.27;;;;;;;;;;6212934;23;20013;-81
2023/09/29 06:27:24;;;;;;;7.25;1.30;;;;;;;;;;6186121;23;20302;-81
2023/09/29 06:29:50;;;;;;;3.33;1.08;;;;;;;;;;6185951;23;20015;-81
2023/09/29 06:32:19;;;;;;;2.78;0.60;;;;;;;;;;6184571;23;20720;-81
2023/09/29 06:38:13;;;;;;;1.98;0.93;;;;;;;;;;6182560;23;20329;-81
2023/09/29 06:44:20;;;;;;;1.15;0.40;;;;;;;;;;6177043;23;20582;-81
2023/09/29 07:23:17;;;;;;;1.35;0.68;;;;;;;;;;6212991;23;20016;-81
2023/09/29 07:26:06;;;;;;;3.20;0.47;;;;;;;;;;6211573;23;20091;-81
2023/09/29 07:36:29;;;;;;;1.05;0.60;;;;;;;;;;6094579;23;20036;-81
2023/09/29 15:21:05;;;;;;;0.77;0.35;;;;;;;;;;6256964;22;20474;-85
2023/09/29 15:23:38;;;;;;;2.10;0.60;;;;;;;;;;6242613;22;20376;-85
2023/09/29 15:26:07;;;;;;;2.00;0.57;;;;;;;;;;6275022;22;20012;-85
2023/09/29 15:34:31;;;;;;;1.63;0.68;;;;;;;;;;6274400;22;20459;-85
2023/09/29 15:43:40;;;;;;;1.30;0.50;;;;;;;;;;6271777;22;20461;-84
2023/09/29 15:46:18;;;;;;;1.98;0.50;;;;;;;;;;6233656;23;20386;-84
2023/09/29 15:49:12;;;;;;;0.70;0.50;;;;;;;;;;6241916;23;20008;-84
2023/09/29 15:52:13;;;;;;;;;;;;;;;;;;;;;
2023/09/29 15:55:01;;;;;;;1.85;0.50;;;;;;;;;;6203374;22;20020;-84
2023/09/29 15:57:39;;;;;;;2.72;0.75;;;;;;;;;;6242393;23;20008;-86
2023/09/29 16:11:15;;;;;;;0.95;0.30;;;;;;;;;;6192711;22;20028;-84
2023/09/29 16:14:08;;;;;;;;;;;;;;;;;;;;;
2023/09/29 16:16:52;;;;;;;;;;;;;;;;;;;;;
2023/09/29 16:19:39;;;;;;;;;;;;;;;;;;;;;
2023/09/29 16:22:36;;;;;;;;;;;;;;;;;;;;;
2023/09/29 16:44:04;;;;;;;6.07;1.17;;;;;;;;;;6227755;23;20024;-82
2023/09/29 16:53:28;;;;;;;;;;;;;;;;;;;;;
2023/09/29 17:05:26;;;;;;;;;;;;;;;;;;;;;
2023/09/29 17:32:24;;;;;;;4.03;0.98;;;;;;;;;;6245150;22;20364;-85
2023/09/29 17:35:10;;;;;;;;;;;;;;;;;;;;;
2023/09/29 17:46:46;;;;;;;1.60;0.75;;;;;;;;;;6264577;22;20133;-83
2023/09/29 17:49:15;;;;;;;0.50;0.30;;;;;;;;;;6276094;22;20036;-83
2023/09/29 17:51:48;;;;;;;0.30;0.25;;;;;;;;;;6248376;22;20023;-82
2023/09/29 17:55:03;;;;;;;;;;;;;;;;;;;;;
2023/09/29 18:00:43;;;;;;;4.38;0.68;;;;;;;;;;6241331;23;20079;-83
2023/09/29 18:11:46;;;;;;;1.85;0.35;;;;;;;;;;6157020;23;20131;-88
2023/09/29 18:14:12;;;;;;;2.63;0.77;;;;;;;;;;6129843;23;20690;-84
2023/09/29 18:16:38;;;;;;;1.08;0.50;;;;;;;;;;6154668;23;20001;-84
2023/09/29 18:19:04;;;;;;;2.65;0.77;;;;;;;;;;6127614;23;20048;-83
2023/09/29 18:21:30;;;;;;;1.58;0.32;;;;;;;;;;6153503;23;20369;-82
2023/09/29 18:23:57;;;;;;;3.75;1.15;;;;;;;;;;6126502;23;20013;-82
2023/09/29 18:35:14;;;;;;;0.38;0.22;;;;;;;;;;6277040;22;20051;-83
2023/09/29 18:37:41;;;;;;;1.17;0.63;;;;;;;;;;6275647;22;20015;-84
2023/09/29 18:40:09;;;;;;;2.58;0.57;;;;;;;;;;6276541;22;20330;-86
2023/09/29 18:42:53;;;;;;;0.85;0.43;;;;;;;;;;6276905;22;20008;-85
2023/09/29 18:45:25;;;;;;;3.05;0.70;;;;;;;;;;6279666;22;20045;-84
2023/09/29 18:48:16;;;;;;;1.60;0.45;;;;;;;;;;6279448;22;20007;-86
2023/09/29 18:51:31;;;;;;;;;;;;;;;;;;;;;
2023/09/29 18:53:58;;;;;;;2.38;0.50;;;;;;;;;;6125939;23;20517;-84
2023/09/29 18:56:40;;;;;;;0.63;0.25;;;;;;;;;;6148665;23;20031;-85
2023/09/29 18:59:14;;;;;;;2.72;0.50;;;;;;;;;;6190173;23;20023;-84
2023/09/29 19:01:40;;;;;;;2.33;0.50;;;;;;;;;;6213516;23;20013;-84
2023/09/29 19:04:06;;;;;;;1.05;0.55;;;;;;;;;;6213873;23;20064;-84
2023/09/29 19:06:32;;;;;;;0.80;0.30;;;;;;;;;;6189644;23;20336;-86
2023/09/29 19:09:03;;;;;;;1.05;0.43;;;;;;;;;;6189380;23;20036;-85
2023/09/29 19:11:41;;;;;;;3.17;0.50;;;;;;;;;;6190296;23;20091;-86
2023/09/29 19:14:21;;;;;;;1.10;0.55;;;;;;;;;;6192828;22;20104;-85
2023/09/29 19:16:54;;;;;;;2.35;0.52;;;;;;;;;;6278143;22;20008;-86
2023/09/29 19:19:23;;;;;;;3.15;0.77;;;;;;;;;;6276923;22;19999;-86
2023/09/29 19:21:49;;;;;;;0.52;0.38;;;;;;;;;;6278270;22;20008;-86
2023/09/29 19:24:20;;;;;;;4.82;1.20;;;;;;;;;;6277239;22;20344;-85
2023/09/29 19:26:55;;;;;;;9.32;0.77;;;;;;;;;;6279706;22;20003;-88
2023/09/29 19:29:22;;;;;;;2.80;0.93;;;;;;;;;;6277386;22;20018;-86
2023/09/29 19:31:48;;;;;;;3.08;0.90;;;;;;;;;;6276007;22;20008;-87
2023/09/29 19:34:14;;;;;;;2.13;0.60;;;;;;;;;;6275716;22;20020;-86
2023/09/29 19:36:40;;;;;;;1.85;0.55;;;;;;;;;;6276886;22;20015;-86
2023/09/29 19:39:25;;;;;;;5.20;0.77;;;;;;;;;;6276987;22;20017;-86
2023/09/29 19:41:51;;;;;;;1.73;0.45;;;;;;;;;;6277433;22;20015;-86
2023/09/29 19:44:17;;;;;;;1.02;0.70;;;;;;;;;;6277092;22;20004;-85
2023/09/29 19:46:45;;;;;;;0.80;0.40;;;;;;;;;;6277767;22;20085;-86
2023/09/29 19:55:28;;;;;;;2.47;0.40;;;;;;;;;;6186009;23;20019;-86
2023/09/29 19:57:56;;;;;;;1.65;0.55;;;;;;;;;;6245783;22;20008;-86
2023/09/29 20:00:26;;;;;;;1.30;0.40;;;;;;;;;;6278120;22;20012;-86
2023/09/29 20:03:33;;;;;;;2.42;0.40;;;;;;;;;;6279612;22;20323;-85
2023/09/29 20:06:08;;;;;;;2.55;0.80;;;;;;;;;;6160153;23;20041;-84
2023/09/29 20:21:57;;;;;;;2.08;0.52;;;;;;;;;;6186851;23;20002;-85
2023/09/29 20:24:26;;;;;;;;;;;;;;;;;;6187120;23;20009;-86
2023/09/29 20:29:59;;;;;;;1.92;0.70;;;;;;;;;;6187293;23;20329;-85
2023/09/29 21:01:19;;;;;;;0.73;0.60;;;;;;;;;;6212627;23;20023;-87
2023/09/29 21:31:02;;;;;;;2.72;0.75;;;;;;;;;;6203735;22;20031;-83
2023/09/29 22:00:38;;;;;;;1.08;0.47;;;;;;;;;;6165869;23;20453;-84
2023/09/29 22:09:46;;;;;;;3.95;1.33;;;;;;;;;;6153896;23;20437;-84
2023/09/29 22:12:45;;;;;;;1.80;0.57;;;;;;;;;;6154513;23;20022;-84
2023/09/29 22:34:17;;;;;;;3.38;1.55;;;;;;;;;;6066797;23;20035;-84
2023/09/29 22:36:47;;;;;;;2.80;1.38;;;;;;;;;;6170203;23;20021;-84
2023/09/29 22:39:42;;;;;;;5.07;1.10;;;;;;;;;;6160210;23;20016;-84
2023/09/29 22:54:02;;;;;;;4.20;1.13;;;;;;;;;;6186211;23;20438;-84
2023/09/29 22:57:04;;;;;;;;;;;;;;;;;;;;;
2023/09/29 23:27:41;;;;;;;;;;;;;;;;;;;;;
2023/09/29 23:30:24;;;;;;;;;;;;;;;;;;6188921;23;20096;-84
2023/09/29 23:39:39;;;;;;;3.53;1.17;;;;;;;;;;6162588;23;20005;-83
